createdAt,value
2022-08-07T10:05:01.035Z,51.291107
2022-08-07T10:06:03.574Z,51.291065
2022-08-07T10:07:01.073Z,51.291027
2022-08-07T10:08:01.291Z,51.291035
2022-08-07T10:09:01.025Z,51.291149
2022-08-07T10:10:03.016Z,51.291172
2022-08-07T10:11:59.918Z,51.291195
2022-08-07T10:12:14.153Z,51.291241
2022-08-07T10:13:00.918Z,51.291344
2022-08-07T10:14:02.383Z,51.291245
2022-08-07T10:15:00.882Z,51.291168
2022-08-07T10:16:00.829Z,51.291214
2022-08-07T10:17:01.113Z,51.291225
2022-08-07T10:18:02.828Z,51.291351
2022-08-07T10:19:00.851Z,51.291199
2022-08-07T10:20:00.798Z,51.291206
2022-08-07T10:21:00.835Z,51.291256
2022-08-07T10:22:15.833Z,51.291256
2022-08-07T10:23:00.829Z,51.291161
2022-08-07T10:24:05.582Z,51.291229
2022-08-07T10:25:00.741Z,51.291210
2022-08-07T10:26:00.734Z,51.291317
2022-08-07T10:27:00.731Z,51.291317
2022-08-07T10:28:02.520Z,51.291172
2022-08-07T10:29:00.718Z,51.291161
2022-08-07T10:30:00.682Z,51.291191
2022-08-07T10:31:00.682Z,51.291302
2022-08-07T10:32:00.681Z,51.291302
2022-08-07T10:33:00.668Z,51.291225
2022-08-07T10:34:15.067Z,51.291225
2022-08-07T10:35:00.633Z,51.291203
2022-08-07T10:36:05.623Z,51.291252
2022-08-07T10:37:03.819Z,51.291180
2022-08-07T10:38:21.044Z,51.291214
2022-08-07T10:39:00.615Z,51.291237
2022-08-07T10:40:05.392Z,51.291241
2022-08-07T10:41:00.598Z,51.291218
2022-08-07T10:42:09.742Z,51.291206
2022-08-07T10:43:00.552Z,51.291199
2022-08-07T10:44:07.381Z,51.291191
2022-08-07T10:45:00.505Z,51.291225
2022-08-07T10:46:00.567Z,51.291275
2022-08-07T10:47:00.489Z,51.291191
2022-08-07T10:48:03.585Z,51.291229
2022-08-07T10:49:00.526Z,51.291256
2022-08-07T10:50:00.471Z,51.291248
2022-08-07T10:51:00.470Z,51.291187
2022-08-07T10:52:12.937Z,51.291229
2022-08-07T10:53:05.393Z,51.291264
2022-08-07T10:54:00.434Z,51.291248
2022-08-07T10:55:01.455Z,51.291195
2022-08-07T10:56:02.175Z,51.291176
2022-08-07T10:57:00.364Z,51.291077
2022-08-07T10:58:00.415Z,51.291138
2022-08-07T10:59:00.375Z,51.291206
2022-08-07T11:00:00.421Z,51.291309
2022-08-07T11:01:00.770Z,51.291306
2022-08-07T11:02:05.338Z,51.291260
2022-08-07T11:03:00.386Z,51.291229
2022-08-07T11:04:16.454Z,51.291370
2022-08-07T11:05:01.680Z,51.291237
2022-08-07T11:06:00.302Z,51.291237
2022-08-07T11:07:00.364Z,51.291203
2022-08-07T11:08:02.635Z,51.291248
2022-08-07T11:09:00.274Z,51.291203
2022-08-07T11:10:09.889Z,51.291256
2022-08-07T11:11:00.311Z,51.291218
2022-08-07T11:12:00.251Z,51.291225
2022-08-07T11:13:02.277Z,51.291248
2022-08-07T11:14:43.878Z,51.291199
2022-08-07T11:15:01.058Z,51.291187
2022-08-07T11:16:00.165Z,51.291210
2022-08-07T11:17:01.960Z,51.291245
2022-08-07T11:18:03.680Z,51.291214
2022-08-07T11:19:00.257Z,51.291229
2022-08-07T11:20:00.137Z,51.291328
2022-08-07T11:21:00.211Z,51.291252
2022-08-07T11:22:00.497Z,51.291328
2022-08-07T11:23:00.154Z,51.291183
2022-08-07T11:24:00.395Z,51.291328
2022-08-07T11:25:00.167Z,51.291290
2022-08-07T11:26:06.482Z,51.291218
2022-08-07T11:27:01.195Z,51.291290
2022-08-07T11:28:02.628Z,51.291199
2022-08-07T11:29:00.066Z,51.291245
2022-08-07T11:30:17.822Z,51.291172
2022-08-07T11:31:00.107Z,51.291153
2022-08-07T11:32:00.097Z,51.291183
2022-08-07T11:33:00.035Z,51.291176
2022-08-07T11:34:00.803Z,51.291203
2022-08-07T11:35:00.980Z,51.291149
2022-08-07T11:36:00.557Z,51.291138
2022-08-07T11:37:00.391Z,51.291164
2022-08-07T11:38:12.889Z,51.291210
2022-08-07T11:38:59.988Z,51.291248
2022-08-07T11:40:01.998Z,51.291325
2022-08-07T11:40:59.972Z,51.291142
2022-08-07T11:42:02.921Z,51.291168
2022-08-07T11:42:59.927Z,51.291222
2022-08-07T11:44:12.270Z,51.291225
2022-08-07T11:44:59.943Z,51.291199
2022-08-07T11:45:59.851Z,51.291222
2022-08-07T11:46:59.861Z,51.291161
2022-08-07T11:48:02.614Z,51.291199
2022-08-07T11:49:51.344Z,51.291267
2022-08-07T11:50:30.569Z,51.291241
2022-08-07T11:51:00.149Z,51.291279
2022-08-07T11:51:59.963Z,51.291241
2022-08-07T11:53:01.240Z,51.291260
2022-08-07T11:54:01.031Z,51.291233
2022-08-07T11:54:59.963Z,51.291195
2022-08-07T11:56:11.929Z,51.291428
2022-08-07T11:56:59.795Z,51.291328
2022-08-07T11:58:01.608Z,51.291256
2022-08-07T11:58:59.812Z,51.291195
2022-08-07T12:00:11.996Z,51.291126
2022-08-07T12:01:02.327Z,51.291069
2022-08-07T12:02:01.093Z,51.291206
2022-08-07T12:02:59.954Z,51.291260
2022-08-07T12:03:59.738Z,51.291340
2022-08-07T12:04:59.792Z,51.291264
2022-08-07T12:05:59.679Z,51.291359
2022-08-07T12:07:07.921Z,51.291248
2022-08-07T12:08:04.155Z,51.291180
2022-08-07T12:08:59.773Z,51.291054
2022-08-07T12:10:02.174Z,51.291050
2022-08-07T12:11:08.077Z,51.290997
2022-08-07T12:12:10.851Z,51.290878
2022-08-07T12:12:59.572Z,51.290913
2022-08-07T12:13:59.587Z,51.291023
2022-08-07T12:15:01.192Z,51.291046
2022-08-07T12:16:05.808Z,51.291092
2022-08-07T12:17:00.178Z,51.291046
2022-08-07T12:18:03.032Z,51.291096
2022-08-07T12:18:59.554Z,51.291138
2022-08-07T12:20:06.310Z,51.291119
2022-08-07T12:21:00.616Z,51.291092
2022-08-07T12:22:39.125Z,51.291100
2022-08-07T12:22:59.715Z,51.291149
2022-08-07T12:24:05.518Z,51.291172
2022-08-07T12:25:02.208Z,51.291264
2022-08-07T12:26:05.759Z,51.291233
2022-08-07T12:26:59.433Z,51.291218
2022-08-07T12:28:09.963Z,51.291229
2022-08-07T12:29:00.711Z,51.291203
2022-08-07T12:29:59.378Z,51.291191
2022-08-07T12:30:59.422Z,51.291096
2022-08-07T12:32:03.911Z,51.291149
2022-08-07T12:32:59.348Z,51.291260
2022-08-07T12:34:03.995Z,51.291290
2022-08-07T12:34:59.356Z,51.291286
2022-08-07T12:36:02.342Z,51.291145
2022-08-07T12:36:59.332Z,51.291245
2022-08-07T12:38:11.452Z,51.291317
2022-08-07T12:38:59.460Z,51.291187
2022-08-07T12:40:04.253Z,51.291176
2022-08-07T12:41:00.330Z,51.291191
2022-08-07T12:42:41.099Z,51.291046
2022-08-07T12:43:00.233Z,51.291126
2022-08-07T12:55:40.634Z,51.291317
2022-08-07T12:56:23.108Z,51.291309
2022-08-07T12:57:23.082Z,51.291309
2022-08-07T12:58:28.235Z,51.291298
2022-08-07T12:59:24.368Z,51.291229
2022-08-07T13:00:32.825Z,51.291256
2022-08-07T13:01:23.136Z,51.291298
2022-08-07T13:02:23.009Z,51.291290
2022-08-07T13:37:20.023Z,51.291031
2022-08-07T13:38:14.530Z,51.291122
2022-08-07T13:39:49.368Z,51.291195
2022-08-07T14:45:21.835Z,51.291306
2022-08-07T14:46:05.699Z,51.291290
2022-08-07T14:48:06.606Z,51.290806
2022-08-07T14:49:57.512Z,51.290977
2022-08-07T14:50:05.584Z,51.291031
2022-08-07T14:51:05.615Z,51.291363
2022-08-07T14:52:10.616Z,51.291252
2022-08-07T14:53:08.069Z,51.291443
2022-08-07T14:54:30.866Z,51.291382
2022-08-07T14:55:05.529Z,51.291271
2022-08-07T14:56:05.532Z,51.291164
2022-08-07T14:57:05.565Z,51.291313
2022-08-07T14:58:05.725Z,51.291168
2022-08-07T15:00:07.089Z,51.291222
2022-08-07T15:01:21.484Z,51.291100
2022-08-07T15:02:06.502Z,51.291363
2022-08-07T15:03:16.516Z,51.291416
2022-08-07T15:04:05.878Z,51.291409
2022-08-07T15:05:20.094Z,51.291283
2022-08-07T15:06:05.416Z,51.291111
2022-08-07T15:07:17.819Z,51.291187
2022-08-07T15:08:05.408Z,51.291328
2022-08-07T15:10:10.915Z,51.291084
2022-08-07T15:11:05.528Z,51.291275
2022-08-07T15:12:06.747Z,51.291210
2022-08-07T15:13:06.681Z,51.291187
2022-08-07T15:14:10.131Z,51.291428
2022-08-07T15:16:11.434Z,51.291485
2022-08-07T15:17:05.314Z,51.291313
2022-08-07T15:18:05.347Z,51.291290
2022-08-07T15:19:05.280Z,51.291088
2022-08-07T15:20:33.160Z,51.291134
2022-08-07T15:21:08.200Z,51.291210
2022-08-07T15:22:07.018Z,51.291260
2022-08-07T15:25:14.053Z,51.291134
2022-08-07T15:26:06.260Z,51.291183
2022-08-07T15:27:05.630Z,51.291241
2022-08-07T15:28:36.316Z,51.291210
2022-08-07T15:31:06.526Z,51.291203
2022-08-07T15:32:05.210Z,51.291336
2022-08-07T15:33:19.608Z,51.291420
2022-08-07T15:34:05.126Z,51.291412
2022-08-07T15:35:05.125Z,51.291527
2022-08-07T15:36:05.688Z,51.291409
2022-08-07T15:37:06.519Z,51.291210
2022-08-07T15:38:31.196Z,51.291149
2022-08-07T15:39:05.122Z,51.291153
2022-08-07T15:40:05.079Z,51.291203
2022-08-07T15:41:23.969Z,51.291245
2022-08-07T15:42:46.705Z,51.291119
2022-08-07T15:43:06.093Z,51.291214
2022-08-07T15:44:05.033Z,51.291252
2022-08-07T15:45:05.012Z,51.291309
2022-08-07T15:46:31.660Z,51.291332
2022-08-07T15:47:08.743Z,51.291199
2022-08-07T15:48:05.039Z,51.291176
2022-08-07T15:49:14.269Z,51.291218
2022-08-07T15:50:06.710Z,51.291248
2022-08-07T15:51:09.316Z,51.291195
2022-08-07T15:52:04.974Z,51.291199
2022-08-07T15:53:05.108Z,51.291275
2022-08-07T15:54:04.900Z,51.291191
2022-08-07T15:55:14.366Z,51.291107
2022-08-07T15:56:06.933Z,51.291183
2022-08-07T15:57:04.923Z,51.291039
2022-08-07T15:58:04.915Z,51.291100
2022-08-07T15:59:05.736Z,51.290932
2022-08-07T16:00:06.578Z,51.291279
2022-08-07T16:01:04.932Z,51.291492
2022-08-07T16:02:04.909Z,51.291172
2022-08-07T16:03:04.845Z,51.291386
2022-08-07T16:04:04.801Z,51.291161
2022-08-07T16:05:04.800Z,51.290901
2022-08-07T16:06:04.790Z,51.291588
2022-08-07T16:07:05.036Z,51.290676
2022-08-07T16:08:33.520Z,51.294067
2022-08-07T16:09:07.693Z,51.300804
2022-08-07T16:10:04.789Z,51.300804
2022-08-07T16:11:04.768Z,51.300804
2022-08-07T16:12:04.737Z,51.290810
2022-08-07T16:13:17.361Z,51.290787
2022-08-07T16:14:04.726Z,51.291000
2022-08-07T16:15:05.618Z,51.291176
2022-08-07T16:16:06.496Z,51.291294
2022-08-07T16:17:16.168Z,51.291088
2022-08-07T16:18:04.655Z,51.291126
2022-08-07T16:19:04.682Z,51.291096
2022-08-07T16:20:04.787Z,51.290638
2022-08-07T16:21:53.470Z,51.290829
2022-08-07T16:22:14.877Z,51.290905
2022-08-07T16:23:05.080Z,51.291214
2022-08-07T16:24:09.145Z,51.291485
2022-08-07T16:25:04.695Z,51.291683
2022-08-07T16:26:04.606Z,51.291790
2022-08-07T16:27:04.598Z,51.291195
2022-08-07T16:28:04.582Z,51.291168
2022-08-07T16:29:18.814Z,51.291145
2022-08-07T16:30:29.662Z,51.291199
2022-08-07T16:31:05.266Z,51.291157
2022-08-07T16:32:05.635Z,51.291348
2022-08-07T16:34:03.219Z,51.291210
2022-08-07T16:34:09.908Z,51.291210
2022-08-07T16:35:04.495Z,51.291115
2022-08-07T16:36:04.730Z,51.291283
2022-08-07T16:38:04.709Z,51.290878
2022-08-07T16:38:11.376Z,51.291107
2022-08-07T16:39:05.651Z,51.291203
2022-08-07T16:40:04.655Z,51.291214
2022-08-07T16:41:04.827Z,51.291065
2022-08-07T16:42:04.428Z,51.291214
2022-08-07T16:43:04.473Z,51.291142
2022-08-07T16:44:40.438Z,51.291206
2022-08-07T16:45:14.995Z,51.291122
2022-08-07T16:46:21.035Z,51.291080
2022-08-07T16:47:17.849Z,51.291111
2022-08-07T16:48:06.367Z,51.291145
2022-08-07T16:50:20.545Z,51.291241
2022-08-07T16:50:20.624Z,51.291504
2022-08-07T16:51:22.626Z,51.291321
2022-08-07T16:52:50.884Z,51.291328
2022-08-07T16:53:26.809Z,51.291256
2022-08-07T16:54:09.048Z,51.291172
2022-08-07T16:55:08.442Z,51.291218
2022-08-07T16:56:04.364Z,51.291340
2022-08-07T16:57:04.325Z,51.291344
2022-08-07T16:58:04.369Z,51.291283
2022-08-07T16:59:15.277Z,51.291515
2022-08-07T17:00:04.260Z,51.291378
2022-08-07T17:01:07.924Z,51.291138
2022-08-07T17:02:04.205Z,51.291290
2022-08-07T17:03:04.703Z,51.291359
2022-08-07T17:04:04.235Z,51.291325
2022-08-07T17:05:04.257Z,51.291512
2022-08-07T17:06:29.789Z,51.291512
2022-08-07T17:07:04.329Z,51.320820
2022-08-07T17:08:04.168Z,51.361797
2022-08-07T17:09:09.287Z,51.361797
2022-08-07T17:10:09.285Z,51.361797
2022-08-07T17:11:04.200Z,51.291248
2022-08-07T17:12:35.956Z,51.291256
2022-08-07T17:13:04.045Z,51.291248
2022-08-07T17:14:19.688Z,51.291256
2022-08-07T17:15:04.045Z,51.291321
2022-08-07T17:16:04.047Z,51.291229
2022-08-07T17:17:04.062Z,51.291260
2022-08-07T17:18:04.033Z,51.291348
2022-08-07T17:19:03.972Z,51.291286
2022-08-07T17:20:13.987Z,51.291298
2022-08-07T17:21:03.969Z,51.291237
2022-08-07T17:22:03.982Z,51.291103
2022-08-07T17:23:08.649Z,51.291145
2022-08-07T17:24:03.956Z,51.291256
2022-08-07T17:25:03.957Z,51.291328
2022-08-07T17:26:03.895Z,51.291435
2022-08-07T17:27:03.872Z,51.291370
2022-08-07T17:28:06.702Z,51.291252
2022-08-07T17:29:04.503Z,51.291187
2022-08-07T17:30:14.948Z,51.291115
2022-08-07T17:31:16.277Z,51.291176
2022-08-07T17:32:06.344Z,51.291233
2022-08-07T17:33:03.814Z,51.291317
2022-08-07T17:34:15.341Z,51.291206
2022-08-07T17:35:50.061Z,51.291241
2022-08-07T17:36:05.856Z,51.291191
2022-08-07T17:37:09.628Z,51.291264
2022-08-07T17:38:05.482Z,51.291309
2022-08-07T17:39:10.211Z,51.291332
2022-08-07T17:40:10.996Z,51.291233
2022-08-07T17:42:00.998Z,51.291176
2022-08-07T17:42:06.574Z,51.291203
2022-08-07T17:43:03.770Z,51.291256
2022-08-07T17:44:05.765Z,51.291183
2022-08-07T17:45:03.686Z,51.291237
2022-08-07T17:46:03.725Z,51.291164
2022-08-07T17:47:03.644Z,51.291107
2022-08-07T17:48:03.636Z,51.291172
2022-08-07T17:49:08.940Z,51.291225
2022-08-07T17:50:03.617Z,51.291191
2022-08-07T17:51:03.612Z,51.291161
2022-08-07T17:52:03.595Z,51.291348
2022-08-07T17:53:05.877Z,51.291309
2022-08-07T17:54:06.127Z,51.291096
2022-08-07T17:55:04.377Z,51.291134
2022-08-07T17:56:06.761Z,51.291138
2022-08-07T17:57:03.538Z,51.291149
2022-08-07T17:58:05.024Z,51.291496
2022-08-07T17:59:03.501Z,51.291321
2022-08-07T18:00:03.481Z,51.291245
2022-08-07T18:01:03.505Z,51.291214
2022-08-07T18:02:04.489Z,51.291225
2022-08-07T18:03:05.263Z,51.291180
2022-08-07T18:04:07.166Z,51.291225
2022-08-07T18:05:14.252Z,51.291241
2022-08-07T18:06:06.649Z,51.291142
2022-08-07T18:07:20.816Z,51.291023
2022-08-07T18:08:03.482Z,51.291180
2022-08-07T18:09:06.196Z,51.291187
2022-08-07T18:10:07.450Z,51.291279
2022-08-07T18:11:53.934Z,51.291245
2022-08-07T18:12:17.624Z,51.291256
2022-08-07T18:13:03.371Z,51.291302
2022-08-07T18:14:03.466Z,51.291222
2022-08-07T18:15:08.510Z,51.291176
2022-08-07T18:16:03.378Z,51.291241
2022-08-07T18:17:05.306Z,51.291225
2022-08-07T18:18:39.858Z,51.291210
2022-08-07T18:21:05.947Z,51.291203
2022-08-07T18:21:06.520Z,51.291206
2022-08-07T18:21:40.104Z,51.291241
2022-08-07T18:22:06.336Z,51.291233
2022-08-07T18:23:04.537Z,51.291313
2022-08-07T18:24:07.237Z,51.291080
2022-08-07T18:25:19.348Z,51.291084
2022-08-07T18:26:03.211Z,51.291065
2022-08-07T18:27:03.190Z,51.291302
2022-08-07T18:28:03.143Z,51.291615
2022-08-07T18:29:03.203Z,51.291122
2022-08-07T18:30:05.886Z,51.291145
2022-08-07T18:31:03.162Z,51.291279
2022-08-07T18:32:03.214Z,51.291260
2022-08-07T18:33:12.097Z,51.291489
2022-08-07T18:34:03.080Z,51.291214
2022-08-07T18:35:03.099Z,51.291267
2022-08-07T18:36:03.093Z,51.291286
2022-08-07T18:37:09.680Z,51.291256
2022-08-07T18:38:57.525Z,51.291191
2022-08-07T18:40:06.832Z,51.291183
2022-08-07T18:40:06.961Z,51.291229
2022-08-07T18:41:09.401Z,51.291245
2022-08-07T18:42:04.000Z,51.291176
2022-08-07T18:43:03.213Z,51.291218
2022-08-07T18:44:04.078Z,51.291210
2022-08-07T18:45:43.639Z,51.291134
2022-08-07T18:46:25.592Z,51.291176
2022-08-07T18:47:02.981Z,51.291164
2022-08-07T18:48:02.948Z,51.291275
2022-08-07T18:50:06.788Z,51.291267
2022-08-07T18:50:33.150Z,51.291210
2022-08-07T18:51:02.859Z,51.291241
2022-08-07T18:52:25.647Z,51.291286
2022-08-07T18:53:06.089Z,51.291321
2022-08-07T18:54:02.827Z,51.291237
2022-08-07T18:55:42.020Z,51.291199
2022-08-07T18:56:02.834Z,51.291309
2022-08-07T18:57:40.095Z,51.291210
2022-08-07T18:58:02.799Z,51.291199
2022-08-07T19:59:13.067Z,51.292820
2022-08-07T20:00:27.984Z,51.292820
2022-08-07T20:01:13.016Z,51.292820
2022-08-07T20:02:25.908Z,51.292820
2022-08-07T20:03:33.811Z,51.292820
2022-08-07T20:04:13.049Z,51.292820
2022-08-07T20:05:12.976Z,51.292820
2022-08-07T20:06:15.201Z,51.292820
2022-08-07T20:07:12.963Z,51.292820
2022-08-07T20:08:12.964Z,51.292820
2022-08-07T20:10:34.261Z,51.292820
2022-08-07T20:10:35.995Z,51.292820
2022-08-07T20:11:12.943Z,51.292820
2022-08-07T20:12:31.293Z,51.292820
2022-08-07T20:13:22.386Z,51.292820
2022-08-07T20:14:13.755Z,51.292820
2022-08-07T21:20:01.088Z,51.291412
2022-08-07T21:20:48.255Z,51.291290
2022-08-07T21:21:57.047Z,51.291252
2022-08-07T21:22:51.306Z,51.291714
2022-08-07T21:23:50.645Z,51.291889
2022-08-07T21:24:48.957Z,51.291618
2022-08-07T21:25:52.217Z,51.291340
2022-08-07T21:26:49.195Z,51.291138
2022-08-07T21:27:48.200Z,51.291176
2022-08-07T21:28:50.883Z,51.291206
2022-08-07T21:29:52.796Z,51.291183
2022-08-07T21:30:48.201Z,51.291077
2022-08-07T21:32:42.390Z,51.291042
2022-08-07T21:32:52.094Z,51.291203
2022-08-07T21:33:48.165Z,51.291134
2022-08-07T21:34:48.853Z,51.291050
2022-08-07T21:36:04.928Z,51.291100
2022-08-07T21:36:49.955Z,51.291142
2022-08-07T21:37:57.911Z,51.291203
2022-08-07T21:38:49.795Z,51.291035
2022-08-07T21:39:51.859Z,51.291271
2022-08-07T21:40:49.469Z,51.291115
2022-08-07T21:41:52.139Z,51.291309
2022-08-07T21:42:48.679Z,51.291325
2022-08-07T21:43:56.547Z,51.291309
2022-08-07T21:44:50.995Z,51.291317
2022-08-07T21:46:09.795Z,51.291321
2022-08-07T21:46:48.001Z,51.291241
2022-08-07T21:47:50.471Z,51.291245
2022-08-07T21:48:48.385Z,51.291245
2022-08-07T21:50:01.070Z,51.291180
2022-08-07T21:50:47.941Z,51.291218
2022-08-07T21:51:51.155Z,51.291241
2022-08-07T21:52:47.933Z,51.291340
2022-08-07T21:53:52.978Z,51.291164
2022-08-07T21:54:48.443Z,51.291149
2022-08-07T21:55:47.967Z,51.291183
2022-08-07T21:56:49.317Z,51.291248
2022-08-07T21:57:52.400Z,51.291279
2022-08-07T21:58:47.826Z,51.291229
2022-08-07T22:00:05.099Z,51.291222
2022-08-07T22:00:48.209Z,51.291065
2022-08-07T22:02:11.023Z,51.291302
2022-08-07T22:02:47.867Z,51.291313
2022-08-07T22:03:47.747Z,51.291451
2022-08-07T22:04:51.055Z,51.291325
2022-08-07T22:05:48.605Z,51.291393
2022-08-07T22:06:48.805Z,51.291451
2022-08-07T22:07:58.864Z,51.291424
2022-08-07T22:08:47.721Z,51.291294
2022-08-07T22:09:54.357Z,51.291397
2022-08-07T22:10:47.707Z,51.290962
2022-08-07T22:12:05.792Z,51.291222
2022-08-07T22:12:47.698Z,51.291729
2022-08-07T22:13:51.037Z,51.291809
2022-08-07T22:15:00.068Z,51.291271
2022-08-07T22:16:39.249Z,51.291267
2022-08-07T22:16:47.922Z,51.291786
2022-08-07T22:17:47.672Z,51.291786
2022-08-07T22:18:47.623Z,51.291786
2022-08-07T22:19:47.599Z,51.291786
2022-08-07T22:20:47.639Z,51.291786
2022-08-07T22:22:02.275Z,51.291786
2022-08-07T22:22:47.628Z,51.291786
2022-08-07T22:23:47.633Z,51.291786
2022-08-07T22:24:47.615Z,51.291786
2022-08-07T22:25:47.628Z,51.291786
2022-08-07T22:26:47.603Z,51.291786
2022-08-07T22:28:08.370Z,51.291786
2022-08-07T22:28:48.466Z,51.291786
2022-08-07T22:29:49.483Z,51.291786
2022-08-07T22:30:53.050Z,51.291786
2022-08-07T22:31:59.905Z,51.291786
2022-08-07T22:32:47.512Z,51.291786
2022-08-07T22:33:56.219Z,51.291786
2022-08-07T22:34:53.193Z,51.291786
2022-08-07T22:35:47.450Z,51.291786
2022-08-07T22:36:47.605Z,51.291786
2022-08-07T22:38:03.454Z,51.291786
2022-08-07T22:38:47.953Z,51.291786
2022-08-07T22:39:52.858Z,51.291786
2022-08-07T22:40:47.446Z,51.291786
2022-08-07T22:42:19.031Z,51.291786
2022-08-07T22:42:48.431Z,51.291786
2022-08-07T22:43:47.435Z,51.290966
2022-08-07T22:44:58.306Z,51.291126
2022-08-07T22:46:40.725Z,51.291023
2022-08-07T22:47:04.401Z,51.291084
2022-08-07T22:47:49.531Z,51.291122
2022-08-07T22:49:01.294Z,51.291153
2022-08-07T22:49:54.575Z,51.291046
2022-08-07T22:50:48.284Z,51.291126
2022-08-07T22:51:49.081Z,51.291603
2022-08-07T22:52:47.358Z,51.291321
2022-08-07T22:54:08.305Z,51.291332
2022-08-07T22:54:48.944Z,51.291405
2022-08-07T22:55:47.736Z,51.291328
2022-08-07T22:56:47.242Z,51.291359
2022-08-07T22:57:47.252Z,51.291431
2022-08-07T22:58:47.219Z,51.291424
2022-08-07T22:59:47.194Z,51.291420
2022-08-07T23:00:47.193Z,51.291355
2022-08-07T23:01:50.735Z,51.291466
2022-08-07T23:02:47.230Z,51.291405
2022-08-07T23:03:57.254Z,51.291348
2022-08-07T23:04:57.857Z,51.291431
2022-08-07T23:06:08.221Z,51.291374
2022-08-07T23:06:51.628Z,51.291534
2022-08-07T23:07:47.095Z,51.291527
2022-08-07T23:08:53.077Z,51.291561
2022-08-07T23:10:03.810Z,51.291691
2022-08-07T23:10:47.119Z,51.291779
2022-08-07T23:11:47.043Z,51.291344
2022-08-07T23:12:47.035Z,51.291183
2022-08-07T23:14:10.819Z,51.291195
2022-08-07T23:14:47.613Z,51.291153
2022-08-07T23:16:06.315Z,51.291206
2022-08-07T23:16:55.506Z,51.291237
2022-08-07T23:17:47.007Z,51.291225
2022-08-07T23:18:46.970Z,51.291180
2022-08-07T23:19:51.131Z,51.291168
2022-08-07T23:20:53.075Z,51.291248
2022-08-07T23:21:46.968Z,51.291344
2022-08-07T23:22:46.936Z,51.291241
2022-08-07T23:24:06.006Z,51.291302
2022-08-07T23:24:47.584Z,51.291252
2022-08-07T23:25:46.933Z,51.291187
2022-08-07T23:26:50.279Z,51.291248
2022-08-07T23:28:22.443Z,51.291225
2022-08-07T23:28:54.546Z,51.291222
2022-08-07T23:30:37.609Z,51.291222
2022-08-07T23:31:06.832Z,51.291214
2022-08-07T23:34:22.103Z,51.291313
2022-08-07T23:34:23.019Z,51.291233
2022-08-07T23:34:34.418Z,51.291195
2022-08-07T23:34:47.216Z,51.291351
2022-08-07T23:35:46.846Z,51.291214
2022-08-07T23:37:18.574Z,51.291183
2022-08-07T23:38:00.881Z,51.291176
2022-08-07T23:38:46.778Z,51.291214
2022-08-07T23:39:46.861Z,51.291245
2022-08-07T23:40:49.209Z,51.291271
2022-08-07T23:42:01.798Z,51.291130
2022-08-07T23:42:46.747Z,51.291191
2022-08-07T23:43:46.755Z,51.291283
2022-08-07T23:44:46.714Z,51.291275
2022-08-07T23:46:01.649Z,51.291264
2022-08-07T23:46:46.750Z,51.291271
2022-08-07T23:47:48.157Z,51.291245
2022-08-07T23:48:47.093Z,51.291302
2022-08-07T23:49:50.326Z,51.291286
2022-08-07T23:50:47.431Z,51.291256
2022-08-07T23:52:58.420Z,51.291061
2022-08-07T23:53:16.956Z,51.291164
2022-08-07T23:53:51.632Z,51.291119
2022-08-07T23:54:52.914Z,51.291210
2022-08-07T23:55:52.781Z,51.291348
2022-08-07T23:56:54.140Z,51.291306
2022-08-07T23:57:47.527Z,51.291241
2022-08-07T23:58:46.597Z,51.291199
